sensor_id;sensor_type;location;lat;lon;timestamp;temperature;humidity
19847;DHT22;10084;50.518;8.588;2023-04-21T00:00:59;9.30;77.40
19847;DHT22;10084;50.518;8.588;2023-04-21T00:03:26;9.30;77.50
19847;DHT22;10084;50.518;8.588;2023-04-21T00:05:55;9.30;77.70
19847;DHT22;10084;50.518;8.588;2023-04-21T00:08:23;9.30;77.70
19847;DHT22;10084;50.518;8.588;2023-04-21T00:10:49;9.30;77.70
19847;DHT22;10084;50.518;8.588;2023-04-21T00:13:15;9.30;77.80
19847;DHT22;10084;50.518;8.588;2023-04-21T00:15:40;9.30;77.80
19847;DHT22;10084;50.518;8.588;2023-04-21T00:18:06;9.30;77.90
19847;DHT22;10084;50.518;8.588;2023-04-21T00:20:32;9.30;77.90
19847;DHT22;10084;50.518;8.588;2023-04-21T00:22:58;9.30;78.00
19847;DHT22;10084;50.518;8.588;2023-04-21T00:25:24;9.30;78.00
19847;DHT22;10084;50.518;8.588;2023-04-21T00:27:50;9.20;78.00
19847;DHT22;10084;50.518;8.588;2023-04-21T00:30:16;9.30;78.20
19847;DHT22;10084;50.518;8.588;2023-04-21T00:32:42;9.30;78.30
19847;DHT22;10084;50.518;8.588;2023-04-21T00:35:08;9.30;78.30
19847;DHT22;10084;50.518;8.588;2023-04-21T00:37:34;9.30;78.30
19847;DHT22;10084;50.518;8.588;2023-04-21T00:39:59;9.30;78.30
19847;DHT22;10084;50.518;8.588;2023-04-21T00:42:25;9.30;78.40
19847;DHT22;10084;50.518;8.588;2023-04-21T00:44:51;9.20;78.40
19847;DHT22;10084;50.518;8.588;2023-04-21T00:47:17;9.30;78.70
19847;DHT22;10084;50.518;8.588;2023-04-21T00:49:43;9.30;78.80
19847;DHT22;10084;50.518;8.588;2023-04-21T00:52:09;9.30;78.90
19847;DHT22;10084;50.518;8.588;2023-04-21T00:54:35;9.30;79.00
19847;DHT22;10084;50.518;8.588;2023-04-21T00:57:01;9.30;79.00
19847;DHT22;10084;50.518;8.588;2023-04-21T00:59:29;9.40;79.10
19847;DHT22;10084;50.518;8.588;2023-04-21T01:01:55;9.40;79.00
19847;DHT22;10084;50.518;8.588;2023-04-21T01:04:21;9.40;79.10
19847;DHT22;10084;50.518;8.588;2023-04-21T01:06:47;9.40;79.20
19847;DHT22;10084;50.518;8.588;2023-04-21T01:09:13;9.40;79.30
19847;DHT22;10084;50.518;8.588;2023-04-21T01:11:39;9.50;79.30
19847;DHT22;10084;50.518;8.588;2023-04-21T01:14:06;9.50;79.30
19847;DHT22;10084;50.518;8.588;2023-04-21T01:16:32;9.50;79.30
19847;DHT22;10084;50.518;8.588;2023-04-21T01:18:59;9.50;79.20
19847;DHT22;10084;50.518;8.588;2023-04-21T01:21:25;9.50;79.30
19847;DHT22;10084;50.518;8.588;2023-04-21T01:23:52;9.50;79.50
19847;DHT22;10084;50.518;8.588;2023-04-21T01:26:21;9.50;79.40
19847;DHT22;10084;50.518;8.588;2023-04-21T01:28:48;9.50;79.50
19847;DHT22;10084;50.518;8.588;2023-04-21T01:31:15;9.50;79.50
19847;DHT22;10084;50.518;8.588;2023-04-21T01:33:42;9.50;79.70
19847;DHT22;10084;50.518;8.588;2023-04-21T01:36:08;9.50;79.70
19847;DHT22;10084;50.518;8.588;2023-04-21T01:38:38;9.50;79.80
19847;DHT22;10084;50.518;8.588;2023-04-21T01:41:04;9.50;80.00
19847;DHT22;10084;50.518;8.588;2023-04-21T01:43:29;9.50;80.00
19847;DHT22;10084;50.518;8.588;2023-04-21T01:45:55;9.50;80.00
19847;DHT22;10084;50.518;8.588;2023-04-21T01:48:21;9.50;80.90
19847;DHT22;10084;50.518;8.588;2023-04-21T01:50:47;9.40;80.30
19847;DHT22;10084;50.518;8.588;2023-04-21T01:53:12;9.40;80.50
19847;DHT22;10084;50.518;8.588;2023-04-21T01:55:40;9.50;80.60
19847;DHT22;10084;50.518;8.588;2023-04-21T01:58:08;9.50;80.70
19847;DHT22;10084;50.518;8.588;2023-04-21T02:00:33;9.50;80.70
19847;DHT22;10084;50.518;8.588;2023-04-21T02:02:59;9.50;80.80
19847;DHT22;10084;50.518;8.588;2023-04-21T02:05:25;9.50;80.80
19847;DHT22;10084;50.518;8.588;2023-04-21T02:07:50;9.50;80.80
19847;DHT22;10084;50.518;8.588;2023-04-21T02:10:16;9.50;80.90
19847;DHT22;10084;50.518;8.588;2023-04-21T02:12:43;9.40;80.80
19847;DHT22;10084;50.518;8.588;2023-04-21T02:15:09;9.40;81.00
19847;DHT22;10084;50.518;8.588;2023-04-21T02:17:35;9.40;81.10
19847;DHT22;10084;50.518;8.588;2023-04-21T02:20:01;9.40;81.20
19847;DHT22;10084;50.518;8.588;2023-04-21T02:22:27;9.30;81.20
19847;DHT22;10084;50.518;8.588;2023-04-21T02:24:53;9.30;81.30
19847;DHT22;10084;50.518;8.588;2023-04-21T02:27:19;9.20;81.40
19847;DHT22;10084;50.518;8.588;2023-04-21T02:29:45;9.20;81.70
19847;DHT22;10084;50.518;8.588;2023-04-21T02:32:11;9.10;81.80
19847;DHT22;10084;50.518;8.588;2023-04-21T02:34:37;9.10;82.00
19847;DHT22;10084;50.518;8.588;2023-04-21T02:37:03;9.10;82.20
19847;DHT22;10084;50.518;8.588;2023-04-21T02:39:29;9.10;82.30
19847;DHT22;10084;50.518;8.588;2023-04-21T02:41:55;9.10;82.40
19847;DHT22;10084;50.518;8.588;2023-04-21T02:44:21;9.10;83.10
19847;DHT22;10084;50.518;8.588;2023-04-21T02:46:47;9.10;82.50
19847;DHT22;10084;50.518;8.588;2023-04-21T02:49:13;9.10;82.60
19847;DHT22;10084;50.518;8.588;2023-04-21T02:51:38;9.10;82.80
19847;DHT22;10084;50.518;8.588;2023-04-21T02:54:04;9.20;82.80
19847;DHT22;10084;50.518;8.588;2023-04-21T02:56:30;9.20;82.70
19847;DHT22;10084;50.518;8.588;2023-04-21T02:58:57;9.20;82.80
19847;DHT22;10084;50.518;8.588;2023-04-21T03:01:22;9.20;82.80
19847;DHT22;10084;50.518;8.588;2023-04-21T03:03:48;9.30;82.90
19847;DHT22;10084;50.518;8.588;2023-04-21T03:06:13;9.30;83.00
19847;DHT22;10084;50.518;8.588;2023-04-21T03:08:39;9.30;83.00
19847;DHT22;10084;50.518;8.588;2023-04-21T03:11:05;9.30;83.20
19847;DHT22;10084;50.518;8.588;2023-04-21T03:13:30;9.30;83.40
19847;DHT22;10084;50.518;8.588;2023-04-21T03:15:56;9.40;83.40
19847;DHT22;10084;50.518;8.588;2023-04-21T03:18:22;9.40;83.40
19847;DHT22;10084;50.518;8.588;2023-04-21T03:20:49;9.40;83.40
19847;DHT22;10084;50.518;8.588;2023-04-21T03:23:15;9.40;83.50
19847;DHT22;10084;50.518;8.588;2023-04-21T03:25:42;9.40;83.70
19847;DHT22;10084;50.518;8.588;2023-04-21T03:28:08;9.40;83.60
19847;DHT22;10084;50.518;8.588;2023-04-21T03:30:34;9.50;83.70
19847;DHT22;10084;50.518;8.588;2023-04-21T03:33:00;9.50;83.80
19847;DHT22;10084;50.518;8.588;2023-04-21T03:35:26;9.50;84.00
19847;DHT22;10084;50.518;8.588;2023-04-21T03:37:52;9.50;84.10
19847;DHT22;10084;50.518;8.588;2023-04-21T03:40:17;9.50;84.20
19847;DHT22;10084;50.518;8.588;2023-04-21T03:42:43;9.50;84.20
19847;DHT22;10084;50.518;8.588;2023-04-21T03:45:09;9.50;84.50
19847;DHT22;10084;50.518;8.588;2023-04-21T03:47:35;9.60;84.40
19847;DHT22;10084;50.518;8.588;2023-04-21T03:50:05;9.60;84.50
19847;DHT22;10084;50.518;8.588;2023-04-21T03:52:31;9.60;84.60
19847;DHT22;10084;50.518;8.588;2023-04-21T03:54:57;9.60;84.50
19847;DHT22;10084;50.518;8.588;2023-04-21T03:57:22;9.60;84.60
19847;DHT22;10084;50.518;8.588;2023-04-21T03:59:48;9.60;84.50
19847;DHT22;10084;50.518;8.588;2023-04-21T04:02:14;9.60;84.60
19847;DHT22;10084;50.518;8.588;2023-04-21T04:04:39;9.60;84.60
19847;DHT22;10084;50.518;8.588;2023-04-21T04:07:05;9.60;84.80
19847;DHT22;10084;50.518;8.588;2023-04-21T04:09:32;9.60;84.90
19847;DHT22;10084;50.518;8.588;2023-04-21T04:11:58;9.70;85.00
19847;DHT22;10084;50.518;8.588;2023-04-21T04:14:24;9.60;85.10
19847;DHT22;10084;50.518;8.588;2023-04-21T04:16:49;9.70;85.20
19847;DHT22;10084;50.518;8.588;2023-04-21T04:19:15;9.70;85.20
19847;DHT22;10084;50.518;8.588;2023-04-21T04:21:41;9.70;85.20
19847;DHT22;10084;50.518;8.588;2023-04-21T04:24:06;9.70;85.20
19847;DHT22;10084;50.518;8.588;2023-04-21T04:26:33;9.60;85.10
19847;DHT22;10084;50.518;8.588;2023-04-21T04:29:00;9.60;85.10
19847;DHT22;10084;50.518;8.588;2023-04-21T04:31:28;9.60;85.20
19847;DHT22;10084;50.518;8.588;2023-04-21T04:33:55;9.60;85.40
19847;DHT22;10084;50.518;8.588;2023-04-21T04:36:21;9.60;85.50
19847;DHT22;10084;50.518;8.588;2023-04-21T04:38:47;9.60;85.60
19847;DHT22;10084;50.518;8.588;2023-04-21T04:41:13;9.60;85.80
19847;DHT22;10084;50.518;8.588;2023-04-21T04:43:40;9.60;86.00
19847;DHT22;10084;50.518;8.588;2023-04-21T04:46:06;9.60;85.90
19847;DHT22;10084;50.518;8.588;2023-04-21T04:48:33;9.60;86.00
19847;DHT22;10084;50.518;8.588;2023-04-21T04:50:59;9.70;86.20
19847;DHT22;10084;50.518;8.588;2023-04-21T04:53:27;9.70;86.30
19847;DHT22;10084;50.518;8.588;2023-04-21T04:55:53;9.70;86.50
19847;DHT22;10084;50.518;8.588;2023-04-21T04:58:19;9.70;86.50
19847;DHT22;10084;50.518;8.588;2023-04-21T05:00:45;9.80;86.40
19847;DHT22;10084;50.518;8.588;2023-04-21T05:03:11;9.80;86.50
19847;DHT22;10084;50.518;8.588;2023-04-21T05:05:37;9.80;86.60
19847;DHT22;10084;50.518;8.588;2023-04-21T05:08:02;9.80;87.20
19847;DHT22;10084;50.518;8.588;2023-04-21T05:10:28;9.90;86.60
19847;DHT22;10084;50.518;8.588;2023-04-21T05:12:54;9.90;86.40
19847;DHT22;10084;50.518;8.588;2023-04-21T05:15:20;9.90;86.30
19847;DHT22;10084;50.518;8.588;2023-04-21T05:17:50;9.90;86.50
19847;DHT22;10084;50.518;8.588;2023-04-21T05:20:15;10.00;86.80
19847;DHT22;10084;50.518;8.588;2023-04-21T05:22:41;10.00;86.90
19847;DHT22;10084;50.518;8.588;2023-04-21T05:25:09;10.00;87.00
19847;DHT22;10084;50.518;8.588;2023-04-21T05:27:36;10.10;87.10
19847;DHT22;10084;50.518;8.588;2023-04-21T05:30:01;10.10;87.20
19847;DHT22;10084;50.518;8.588;2023-04-21T05:32:27;10.10;87.50
19847;DHT22;10084;50.518;8.588;2023-04-21T05:34:53;10.20;87.60
19847;DHT22;10084;50.518;8.588;2023-04-21T05:37:19;10.30;87.70
19847;DHT22;10084;50.518;8.588;2023-04-21T05:39:45;10.30;87.60
19847;DHT22;10084;50.518;8.588;2023-04-21T05:42:10;10.40;87.60
19847;DHT22;10084;50.518;8.588;2023-04-21T05:44:36;10.40;87.60
19847;DHT22;10084;50.518;8.588;2023-04-21T05:47:05;10.50;87.60
19847;DHT22;10084;50.518;8.588;2023-04-21T05:49:32;10.50;87.30
19847;DHT22;10084;50.518;8.588;2023-04-21T05:51:58;10.50;87.20
19847;DHT22;10084;50.518;8.588;2023-04-21T05:54:24;10.50;87.20
19847;DHT22;10084;50.518;8.588;2023-04-21T05:56:50;10.60;88.10
19847;DHT22;10084;50.518;8.588;2023-04-21T05:59:16;10.50;87.80
19847;DHT22;10084;50.518;8.588;2023-04-21T06:01:42;10.60;87.30
19847;DHT22;10084;50.518;8.588;2023-04-21T06:04:08;10.60;87.40
19847;DHT22;10084;50.518;8.588;2023-04-21T06:06:34;10.60;87.30
19847;DHT22;10084;50.518;8.588;2023-04-21T06:09:00;10.60;87.30
19847;DHT22;10084;50.518;8.588;2023-04-21T06:11:25;10.70;87.50
19847;DHT22;10084;50.518;8.588;2023-04-21T06:13:51;10.70;87.40
19847;DHT22;10084;50.518;8.588;2023-04-21T06:16:19;10.70;87.20
19847;DHT22;10084;50.518;8.588;2023-04-21T06:18:45;10.70;87.20
19847;DHT22;10084;50.518;8.588;2023-04-21T06:21:10;10.70;87.10
19847;DHT22;10084;50.518;8.588;2023-04-21T06:23:36;10.60;87.40
19847;DHT22;10084;50.518;8.588;2023-04-21T06:26:04;10.60;87.60
19847;DHT22;10084;50.518;8.588;2023-04-21T06:28:32;10.70;88.40
19847;DHT22;10084;50.518;8.588;2023-04-21T06:30:59;10.70;87.80
19847;DHT22;10084;50.518;8.588;2023-04-21T06:33:26;10.70;87.80
19847;DHT22;10084;50.518;8.588;2023-04-21T06:35:52;10.80;87.90
19847;DHT22;10084;50.518;8.588;2023-04-21T06:38:18;10.80;88.00
19847;DHT22;10084;50.518;8.588;2023-04-21T06:40:44;10.90;88.20
19847;DHT22;10084;50.518;8.588;2023-04-21T06:43:09;10.90;88.00
19847;DHT22;10084;50.518;8.588;2023-04-21T06:45:35;11.00;88.50
19847;DHT22;10084;50.518;8.588;2023-04-21T06:48:01;11.00;87.80
19847;DHT22;10084;50.518;8.588;2023-04-21T06:50:26;11.10;87.50
19847;DHT22;10084;50.518;8.588;2023-04-21T06:52:52;11.10;87.40
19847;DHT22;10084;50.518;8.588;2023-04-21T06:55:18;11.10;87.30
19847;DHT22;10084;50.518;8.588;2023-04-21T06:57:43;11.10;87.10
19847;DHT22;10084;50.518;8.588;2023-04-21T07:00:10;11.10;87.20
19847;DHT22;10084;50.518;8.588;2023-04-21T07:02:36;11.20;87.20
19847;DHT22;10084;50.518;8.588;2023-04-21T07:05:02;11.20;87.20
19847;DHT22;10084;50.518;8.588;2023-04-21T07:07:28;11.20;87.40
19847;DHT22;10084;50.518;8.588;2023-04-21T07:09:53;11.30;87.50
19847;DHT22;10084;50.518;8.588;2023-04-21T07:12:19;11.30;87.40
19847;DHT22;10084;50.518;8.588;2023-04-21T07:14:45;11.40;87.50
19847;DHT22;10084;50.518;8.588;2023-04-21T07:17:11;11.50;87.40
19847;DHT22;10084;50.518;8.588;2023-04-21T07:19:36;11.50;87.30
19847;DHT22;10084;50.518;8.588;2023-04-21T07:22:02;11.60;87.30
19847;DHT22;10084;50.518;8.588;2023-04-21T07:24:28;11.60;87.00
19847;DHT22;10084;50.518;8.588;2023-04-21T07:26:53;11.70;86.60
19847;DHT22;10084;50.518;8.588;2023-04-21T07:29:19;11.70;86.10
19847;DHT22;10084;50.518;8.588;2023-04-21T07:31:45;11.70;85.90
19847;DHT22;10084;50.518;8.588;2023-04-21T07:34:13;11.60;85.70
19847;DHT22;10084;50.518;8.588;2023-04-21T07:36:38;11.60;85.60
19847;DHT22;10084;50.518;8.588;2023-04-21T07:39:04;11.60;85.70
19847;DHT22;10084;50.518;8.588;2023-04-21T07:41:31;11.60;86.00
19847;DHT22;10084;50.518;8.588;2023-04-21T07:43:56;11.70;86.40
19847;DHT22;10084;50.518;8.588;2023-04-21T07:46:22;11.80;86.80
19847;DHT22;10084;50.518;8.588;2023-04-21T07:48:55;11.90;90.40
19847;DHT22;10084;50.518;8.588;2023-04-21T07:51:21;12.00;91.40
19847;DHT22;10084;50.518;8.588;2023-04-21T07:53:47;12.20;92.30
19847;DHT22;10084;50.518;8.588;2023-04-21T07:56:13;12.30;92.30
19847;DHT22;10084;50.518;8.588;2023-04-21T07:58:39;12.40;92.90
19847;DHT22;10084;50.518;8.588;2023-04-21T08:01:04;12.60;91.90
19847;DHT22;10084;50.518;8.588;2023-04-21T08:03:30;12.70;91.50
19847;DHT22;10084;50.518;8.588;2023-04-21T08:05:56;12.80;91.50
19847;DHT22;10084;50.518;8.588;2023-04-21T08:08:21;12.80;91.50
19847;DHT22;10084;50.518;8.588;2023-04-21T08:10:47;12.90;91.80
19847;DHT22;10084;50.518;8.588;2023-04-21T08:13:13;13.00;92.40
19847;DHT22;10084;50.518;8.588;2023-04-21T08:15:38;13.10;93.20
19847;DHT22;10084;50.518;8.588;2023-04-21T08:18:05;13.10;94.50
19847;DHT22;10084;50.518;8.588;2023-04-21T08:20:31;13.20;96.20
19847;DHT22;10084;50.518;8.588;2023-04-21T08:22:56;13.30;96.00
19847;DHT22;10084;50.518;8.588;2023-04-21T08:25:22;13.30;95.30
19847;DHT22;10084;50.518;8.588;2023-04-21T08:27:48;13.40;94.40
19847;DHT22;10084;50.518;8.588;2023-04-21T08:30:14;13.40;93.50
19847;DHT22;10084;50.518;8.588;2023-04-21T08:32:40;13.50;92.60
19847;DHT22;10084;50.518;8.588;2023-04-21T08:35:06;13.60;90.60
19847;DHT22;10084;50.518;8.588;2023-04-21T08:37:32;13.70;89.70
19847;DHT22;10084;50.518;8.588;2023-04-21T08:39:57;13.80;89.40
19847;DHT22;10084;50.518;8.588;2023-04-21T08:42:23;14.00;94.10
19847;DHT22;10084;50.518;8.588;2023-04-21T08:44:49;14.20;84.00
19847;DHT22;10084;50.518;8.588;2023-04-21T08:47:14;14.50;83.90
19847;DHT22;10084;50.518;8.588;2023-04-21T08:49:41;14.80;83.40
19847;DHT22;10084;50.518;8.588;2023-04-21T08:52:11;15.00;82.30
19847;DHT22;10084;50.518;8.588;2023-04-21T08:57:06;15.40;98.70
19847;DHT22;10084;50.518;8.588;2023-04-21T08:59:31;15.90;95.80
19847;DHT22;10084;50.518;8.588;2023-04-21T09:02:08;16.50;92.90
19847;DHT22;10084;50.518;8.588;2023-04-21T09:04:37;17.10;93.30
19847;DHT22;10084;50.518;8.588;2023-04-21T09:07:03;17.40;96.00
19847;DHT22;10084;50.518;8.588;2023-04-21T09:09:29;17.60;78.40
19847;DHT22;10084;50.518;8.588;2023-04-21T09:11:58;17.70;77.50
19847;DHT22;10084;50.518;8.588;2023-04-21T09:14:33;17.60;76.20
19847;DHT22;10084;50.518;8.588;2023-04-21T09:17:01;17.40;75.50
19847;DHT22;10084;50.518;8.588;2023-04-21T09:19:28;17.00;74.70
19847;DHT22;10084;50.518;8.588;2023-04-21T09:21:54;16.70;74.90
19847;DHT22;10084;50.518;8.588;2023-04-21T09:24:20;16.50;75.60
19847;DHT22;10084;50.518;8.588;2023-04-21T09:26:50;16.30;75.70
19847;DHT22;10084;50.518;8.588;2023-04-21T09:29:16;16.20;75.60
19847;DHT22;10084;50.518;8.588;2023-04-21T09:31:43;16.30;75.70
19847;DHT22;10084;50.518;8.588;2023-04-21T09:34:22;16.40;76.80
19847;DHT22;10084;50.518;8.588;2023-04-21T09:37:00;16.60;75.90
19847;DHT22;10084;50.518;8.588;2023-04-21T09:39:28;16.70;75.10
19847;DHT22;10084;50.518;8.588;2023-04-21T09:41:55;16.60;74.20
19847;DHT22;10084;50.518;8.588;2023-04-21T09:44:22;16.40;74.00
19847;DHT22;10084;50.518;8.588;2023-04-21T09:46:48;16.20;73.90
19847;DHT22;10084;50.518;8.588;2023-04-21T09:49:21;16.00;74.40
19847;DHT22;10084;50.518;8.588;2023-04-21T09:51:47;15.90;74.20
19847;DHT22;10084;50.518;8.588;2023-04-21T09:54:18;15.70;74.60
19847;DHT22;10084;50.518;8.588;2023-04-21T09:56:48;15.70;75.00
19847;DHT22;10084;50.518;8.588;2023-04-21T09:59:18;15.80;75.30
19847;DHT22;10084;50.518;8.588;2023-04-21T10:01:47;15.80;74.80
19847;DHT22;10084;50.518;8.588;2023-04-21T10:04:14;15.80;74.70
19847;DHT22;10084;50.518;8.588;2023-04-21T10:06:40;15.80;74.70
19847;DHT22;10084;50.518;8.588;2023-04-21T10:09:07;15.70;74.50
19847;DHT22;10084;50.518;8.588;2023-04-21T10:11:34;15.70;74.50
19847;DHT22;10084;50.518;8.588;2023-04-21T10:14:02;15.60;74.70
19847;DHT22;10084;50.518;8.588;2023-04-21T10:16:28;15.50;74.80
19847;DHT22;10084;50.518;8.588;2023-04-21T10:18:54;15.50;75.00
19847;DHT22;10084;50.518;8.588;2023-04-21T10:21:20;15.60;75.00
19847;DHT22;10084;50.518;8.588;2023-04-21T10:23:47;15.60;74.80
19847;DHT22;10084;50.518;8.588;2023-04-21T10:26:19;15.50;74.60
19847;DHT22;10084;50.518;8.588;2023-04-21T10:31:22;15.40;74.40
19847;DHT22;10084;50.518;8.588;2023-04-21T10:34:11;15.40;74.60
19847;DHT22;10084;50.518;8.588;2023-04-21T10:39:28;15.40;74.50
19847;DHT22;10084;50.518;8.588;2023-04-21T10:41:55;15.40;74.40
19847;DHT22;10084;50.518;8.588;2023-04-21T10:44:23;15.40;74.30
19847;DHT22;10084;50.518;8.588;2023-04-21T10:46:52;15.40;74.50
19847;DHT22;10084;50.518;8.588;2023-04-21T10:49:26;15.40;74.50
19847;DHT22;10084;50.518;8.588;2023-04-21T10:54:31;15.60;74.50
19847;DHT22;10084;50.518;8.588;2023-04-21T10:57:01;15.80;74.60
19847;DHT22;10084;50.518;8.588;2023-04-21T10:59:30;16.20;74.80
19847;DHT22;10084;50.518;8.588;2023-04-21T11:01:56;16.80;74.50
19847;DHT22;10084;50.518;8.588;2023-04-21T11:04:22;17.20;73.40
19847;DHT22;10084;50.518;8.588;2023-04-21T11:09:36;18.00;72.10
19847;DHT22;10084;50.518;8.588;2023-04-21T11:12:07;18.80;71.60
19847;DHT22;10084;50.518;8.588;2023-04-21T11:14:35;19.20;69.60
19847;DHT22;10084;50.518;8.588;2023-04-21T11:17:01;19.20;68.80
19847;DHT22;10084;50.518;8.588;2023-04-21T11:19:27;19.00;68.90
19847;DHT22;10084;50.518;8.588;2023-04-21T11:21:53;18.90;69.00
19847;DHT22;10084;50.518;8.588;2023-04-21T11:24:22;18.80;69.40
19847;DHT22;10084;50.518;8.588;2023-04-21T11:26:48;18.80;68.90
19847;DHT22;10084;50.518;8.588;2023-04-21T11:29:14;18.70;68.40
19847;DHT22;10084;50.518;8.588;2023-04-21T11:31:42;18.60;69.00
19847;DHT22;10084;50.518;8.588;2023-04-21T11:34:09;18.70;69.20
19847;DHT22;10084;50.518;8.588;2023-04-21T11:36:40;18.90;68.80
19847;DHT22;10084;50.518;8.588;2023-04-21T11:39:07;19.00;68.20
19847;DHT22;10084;50.518;8.588;2023-04-21T11:41:35;19.10;68.00
19847;DHT22;10084;50.518;8.588;2023-04-21T11:44:01;19.10;67.90
19847;DHT22;10084;50.518;8.588;2023-04-21T11:46:27;19.20;68.10
19847;DHT22;10084;50.518;8.588;2023-04-21T11:49:04;19.00;66.90
19847;DHT22;10084;50.518;8.588;2023-04-21T11:51:37;18.80;66.90
19847;DHT22;10084;50.518;8.588;2023-04-21T11:54:08;18.40;66.90
19847;DHT22;10084;50.518;8.588;2023-04-21T11:56:35;18.10;67.10
19847;DHT22;10084;50.518;8.588;2023-04-21T11:59:10;17.80;67.50
19847;DHT22;10084;50.518;8.588;2023-04-21T12:04:13;17.20;68.50
19847;DHT22;10084;50.518;8.588;2023-04-21T12:06:39;16.90;68.20
19847;DHT22;10084;50.518;8.588;2023-04-21T12:09:05;16.80;68.60
19847;DHT22;10084;50.518;8.588;2023-04-21T12:11:30;16.60;68.90
19847;DHT22;10084;50.518;8.588;2023-04-21T12:13:57;16.50;69.10
19847;DHT22;10084;50.518;8.588;2023-04-21T12:16:25;16.40;69.30
19847;DHT22;10084;50.518;8.588;2023-04-21T12:18:55;16.30;69.50
19847;DHT22;10084;50.518;8.588;2023-04-21T12:21:21;16.30;69.60
19847;DHT22;10084;50.518;8.588;2023-04-21T12:23:46;16.20;70.40
19847;DHT22;10084;50.518;8.588;2023-04-21T12:26:12;16.20;69.90
19847;DHT22;10084;50.518;8.588;2023-04-21T12:28:38;16.20;70.10
19847;DHT22;10084;50.518;8.588;2023-04-21T12:31:05;16.30;70.10
19847;DHT22;10084;50.518;8.588;2023-04-21T12:33:30;16.20;70.10
19847;DHT22;10084;50.518;8.588;2023-04-21T12:35:56;16.30;70.20
19847;DHT22;10084;50.518;8.588;2023-04-21T12:38:22;16.30;70.20
19847;DHT22;10084;50.518;8.588;2023-04-21T12:40:48;16.40;70.30
19847;DHT22;10084;50.518;8.588;2023-04-21T12:43:13;16.40;70.20
19847;DHT22;10084;50.518;8.588;2023-04-21T12:45:39;16.60;70.20
19847;DHT22;10084;50.518;8.588;2023-04-21T12:48:05;16.70;70.30
19847;DHT22;10084;50.518;8.588;2023-04-21T12:50:31;17.00;70.10
19847;DHT22;10084;50.518;8.588;2023-04-21T12:52:58;17.10;69.80
19847;DHT22;10084;50.518;8.588;2023-04-21T12:55:23;17.20;69.30
19847;DHT22;10084;50.518;8.588;2023-04-21T12:57:49;17.30;68.90
19847;DHT22;10084;50.518;8.588;2023-04-21T13:00:16;17.40;69.10
19847;DHT22;10084;50.518;8.588;2023-04-21T13:02:42;17.60;69.10
19847;DHT22;10084;50.518;8.588;2023-04-21T13:05:07;17.90;69.00
19847;DHT22;10084;50.518;8.588;2023-04-21T13:07:35;18.10;69.50
19847;DHT22;10084;50.518;8.588;2023-04-21T13:10:02;18.20;68.20
19847;DHT22;10084;50.518;8.588;2023-04-21T13:12:29;18.40;68.10
19847;DHT22;10084;50.518;8.588;2023-04-21T13:14:55;18.50;67.90
19847;DHT22;10084;50.518;8.588;2023-04-21T13:17:21;18.70;67.90
19847;DHT22;10084;50.518;8.588;2023-04-21T13:19:47;18.90;67.50
19847;DHT22;10084;50.518;8.588;2023-04-21T13:22:13;19.00;67.10
19847;DHT22;10084;50.518;8.588;2023-04-21T13:24:38;19.10;66.70
19847;DHT22;10084;50.518;8.588;2023-04-21T13:27:05;19.20;66.50
19847;DHT22;10084;50.518;8.588;2023-04-21T13:29:31;19.30;66.70
19847;DHT22;10084;50.518;8.588;2023-04-21T13:32:00;19.50;66.50
19847;DHT22;10084;50.518;8.588;2023-04-21T13:34:26;19.70;66.00
19847;DHT22;10084;50.518;8.588;2023-04-21T13:36:52;19.70;65.90
19847;DHT22;10084;50.518;8.588;2023-04-21T13:39:18;19.80;65.30
19847;DHT22;10084;50.518;8.588;2023-04-21T13:41:44;19.80;65.20
19847;DHT22;10084;50.518;8.588;2023-04-21T13:44:09;19.80;65.00
19847;DHT22;10084;50.518;8.588;2023-04-21T13:46:36;19.70;64.60
19847;DHT22;10084;50.518;8.588;2023-04-21T13:49:02;19.70;65.30
19847;DHT22;10084;50.518;8.588;2023-04-21T13:51:27;19.60;64.80
19847;DHT22;10084;50.518;8.588;2023-04-21T13:53:54;19.60;65.00
19847;DHT22;10084;50.518;8.588;2023-04-21T13:56:20;19.70;65.00
19847;DHT22;10084;50.518;8.588;2023-04-21T13:58:46;19.70;65.60
19847;DHT22;10084;50.518;8.588;2023-04-21T14:01:12;19.70;64.90
19847;DHT22;10084;50.518;8.588;2023-04-21T14:03:39;19.80;64.90
19847;DHT22;10084;50.518;8.588;2023-04-21T14:06:05;19.80;64.80
19847;DHT22;10084;50.518;8.588;2023-04-21T14:08:31;19.90;64.40
19847;DHT22;10084;50.518;8.588;2023-04-21T14:10:56;19.70;64.20
19847;DHT22;10084;50.518;8.588;2023-04-21T14:13:23;19.70;64.30
19847;DHT22;10084;50.518;8.588;2023-04-21T14:15:49;19.50;64.20
19847;DHT22;10084;50.518;8.588;2023-04-21T14:18:15;19.40;64.30
19847;DHT22;10084;50.518;8.588;2023-04-21T14:20:40;19.30;64.60
19847;DHT22;10084;50.518;8.588;2023-04-21T14:23:06;19.10;64.50
19847;DHT22;10084;50.518;8.588;2023-04-21T14:25:32;19.00;64.70
19847;DHT22;10084;50.518;8.588;2023-04-21T14:27:58;18.80;64.80
19847;DHT22;10084;50.518;8.588;2023-04-21T14:30:24;18.70;64.70
19847;DHT22;10084;50.518;8.588;2023-04-21T14:32:50;18.50;64.80
19847;DHT22;10084;50.518;8.588;2023-04-21T14:35:15;18.40;65.10
19847;DHT22;10084;50.518;8.588;2023-04-21T14:37:41;18.20;65.20
19847;DHT22;10084;50.518;8.588;2023-04-21T14:40:07;18.10;65.30
19847;DHT22;10084;50.518;8.588;2023-04-21T14:42:34;18.00;65.30
19847;DHT22;10084;50.518;8.588;2023-04-21T14:44:59;17.90;65.40
19847;DHT22;10084;50.518;8.588;2023-04-21T14:47:25;17.70;65.30
19847;DHT22;10084;50.518;8.588;2023-04-21T14:49:51;17.60;65.40
19847;DHT22;10084;50.518;8.588;2023-04-21T14:52:19;17.50;65.50
19847;DHT22;10084;50.518;8.588;2023-04-21T14:54:44;17.30;65.60
19847;DHT22;10084;50.518;8.588;2023-04-21T14:57:10;17.20;65.80
19847;DHT22;10084;50.518;8.588;2023-04-21T14:59:36;17.10;66.00
19847;DHT22;10084;50.518;8.588;2023-04-21T15:02:02;17.00;66.20
19847;DHT22;10084;50.518;8.588;2023-04-21T15:04:29;16.90;66.40
19847;DHT22;10084;50.518;8.588;2023-04-21T15:06:54;16.80;66.60
19847;DHT22;10084;50.518;8.588;2023-04-21T15:09:20;16.80;66.70
19847;DHT22;10084;50.518;8.588;2023-04-21T15:11:46;16.80;66.80
19847;DHT22;10084;50.518;8.588;2023-04-21T15:14:12;16.80;66.80
19847;DHT22;10084;50.518;8.588;2023-04-21T15:16:37;16.90;66.80
19847;DHT22;10084;50.518;8.588;2023-04-21T15:19:03;16.90;66.80
19847;DHT22;10084;50.518;8.588;2023-04-21T15:21:29;16.90;66.80
19847;DHT22;10084;50.518;8.588;2023-04-21T15:23:56;16.90;66.90
19847;DHT22;10084;50.518;8.588;2023-04-21T15:26:22;16.90;66.80
19847;DHT22;10084;50.518;8.588;2023-04-21T15:28:48;17.00;66.70
19847;DHT22;10084;50.518;8.588;2023-04-21T15:31:14;17.00;66.60
19847;DHT22;10084;50.518;8.588;2023-04-21T15:33:40;17.00;66.60
19847;DHT22;10084;50.518;8.588;2023-04-21T15:36:06;17.00;66.70
19847;DHT22;10084;50.518;8.588;2023-04-21T15:38:32;17.00;66.70
19847;DHT22;10084;50.518;8.588;2023-04-21T15:40:58;17.00;66.70
19847;DHT22;10084;50.518;8.588;2023-04-21T15:43:23;17.00;66.80
19847;DHT22;10084;50.518;8.588;2023-04-21T15:45:49;17.10;67.00